createdAt,value
2019-03-27T00:01:15.034Z,7.05
2019-03-27T00:03:16.174Z,8.30
2019-03-27T00:05:17.339Z,8.05
2019-03-27T00:07:19.316Z,7.53
2019-03-27T00:09:20.454Z,7.72
2019-03-27T00:11:21.675Z,6.12
2019-03-27T00:13:22.917Z,5.97
2019-03-27T00:15:24.363Z,6.78
2019-03-27T00:17:25.526Z,7.85
2019-03-27T00:19:26.747Z,7.37
2019-03-27T00:21:27.995Z,6.72
2019-03-27T00:23:29.155Z,7.00
2019-03-27T00:25:30.670Z,7.45
2019-03-27T00:27:31.923Z,8.58
2019-03-27T00:29:33.458Z,7.55
2019-03-27T00:31:34.668Z,7.03
2019-03-27T00:33:35.828Z,7.15
2019-03-27T00:35:36.970Z,7.33
2019-03-27T00:37:38.132Z,5.35
2019-03-27T00:39:39.271Z,6.55
2019-03-27T00:41:40.432Z,7.33
2019-03-27T00:43:41.687Z,7.22
2019-03-27T00:45:42.879Z,5.62
2019-03-27T00:47:44.122Z,6.50
2019-03-27T00:49:45.262Z,6.83
2019-03-27T00:51:46.534Z,6.92
2019-03-27T00:53:47.682Z,7.40
2019-03-27T00:55:49.223Z,5.83
2019-03-27T00:57:50.375Z,6.37
2019-03-27T00:59:51.525Z,6.75
2019-03-27T01:01:52.678Z,6.15
2019-03-27T01:03:53.826Z,6.47
2019-03-27T01:05:54.971Z,6.80
2019-03-27T01:07:56.127Z,6.53
2019-03-27T01:09:57.275Z,7.05
2019-03-27T01:11:59.344Z,6.97
2019-03-27T01:14:00.770Z,6.33
2019-03-27T01:16:02.028Z,6.53
2019-03-27T01:18:03.683Z,7.17
2019-03-27T01:20:05.429Z,6.85
2019-03-27T01:24:07.703Z,7.30
2019-03-27T01:26:09.294Z,8.05
2019-03-27T01:30:13.135Z,7.08
2019-03-27T01:32:14.418Z,8.08
2019-03-27T01:34:15.574Z,8.33
2019-03-27T01:36:17.571Z,7.85
2019-03-27T01:38:19.278Z,7.42
2019-03-27T01:42:22.335Z,6.15
2019-03-27T01:44:24.193Z,6.58
2019-03-27T01:48:26.732Z,5.22
2019-03-27T01:50:27.883Z,5.28
2019-03-27T01:52:29.051Z,6.15
2019-03-27T01:54:30.698Z,6.42
2019-03-27T01:58:32.888Z,6.47
2019-03-27T02:00:34.036Z,7.78
2019-03-27T02:02:35.194Z,6.97
2019-03-27T02:04:36.650Z,4.72
2019-03-27T02:06:37.793Z,7.60
2019-03-27T02:08:39.342Z,8.23
2019-03-27T02:12:41.947Z,6.37
2019-03-27T02:14:43.081Z,8.08
2019-03-27T02:16:44.785Z,7.70
2019-03-27T02:22:49.776Z,8.10
2019-03-27T02:24:51.523Z,8.88
2019-03-27T02:28:53.831Z,9.15
2019-03-27T02:30:55.339Z,7.67
2019-03-27T02:32:56.595Z,10.43
2019-03-27T02:34:58.171Z,8.25
2019-03-27T02:39:00.636Z,9.70
2019-03-27T02:41:01.976Z,8.53
2019-03-27T02:43:03.528Z,10.82
2019-03-27T02:45:05.103Z,9.08
2019-03-27T02:47:06.257Z,9.10
2019-03-27T02:49:07.412Z,8.65
2019-03-27T02:51:08.563Z,8.73
2019-03-27T02:53:10.050Z,8.63
2019-03-27T02:55:11.415Z,7.22
2019-03-27T02:57:12.570Z,7.97
2019-03-27T02:59:13.819Z,7.97
2019-03-27T03:01:14.983Z,8.03
2019-03-27T03:03:16.157Z,8.40
2019-03-27T03:05:17.298Z,8.23
2019-03-27T03:07:18.446Z,8.68
2019-03-27T03:09:19.589Z,6.90
2019-03-27T03:11:20.730Z,9.13
2019-03-27T03:13:21.882Z,8.08
2019-03-27T03:15:23.325Z,8.45
2019-03-27T03:17:24.514Z,9.85
2019-03-27T03:19:25.668Z,9.78
2019-03-27T03:21:27.094Z,10.50
2019-03-27T03:23:28.241Z,8.45
2019-03-27T03:25:29.385Z,8.90
2019-03-27T03:27:30.861Z,11.48
2019-03-27T03:29:32.182Z,9.63
2019-03-27T03:31:33.342Z,10.68
2019-03-27T03:33:34.675Z,13.30
2019-03-27T03:35:35.910Z,11.97
2019-03-27T03:37:37.461Z,12.23
2019-03-27T03:39:38.845Z,13.22
2019-03-27T03:41:40.603Z,13.88
2019-03-27T03:43:42.210Z,14.30
2019-03-27T03:45:43.674Z,15.98
2019-03-27T03:47:44.911Z,16.52
2019-03-27T03:49:46.068Z,14.63
2019-03-27T03:51:47.584Z,16.20
2019-03-27T03:53:49.085Z,16.65
2019-03-27T03:55:51.216Z,14.87
2019-03-27T03:57:53.454Z,17.67
2019-03-27T03:59:56.451Z,15.40
2019-03-27T04:02:01.678Z,16.93
2019-03-27T04:04:03.628Z,15.35
2019-03-27T04:06:04.936Z,14.98
2019-03-27T04:08:06.191Z,16.15
2019-03-27T04:10:07.566Z,13.22
2019-03-27T04:12:08.910Z,13.00
2019-03-27T04:14:10.520Z,13.70
2019-03-27T04:16:12.186Z,12.13
2019-03-27T04:21:49.358Z,13.22
2019-03-27T04:23:51.835Z,12.45
2019-03-27T04:26:08.941Z,13.05
2019-03-27T04:27:56.127Z,13.85
2019-03-27T04:29:58.855Z,14.50
2019-03-27T04:32:00.112Z,15.55
2019-03-27T04:34:01.880Z,14.50
2019-03-27T04:38:04.986Z,17.52
2019-03-27T04:40:06.442Z,18.77
2019-03-27T04:42:07.582Z,19.75
2019-03-27T04:47:11.031Z,21.23
2019-03-27T04:49:12.528Z,21.00
2019-03-27T04:51:14.029Z,22.00
2019-03-27T04:53:15.836Z,23.05
2019-03-27T04:55:17.357Z,21.50
2019-03-27T04:57:18.503Z,20.72
2019-03-27T04:59:19.755Z,20.60
2019-03-27T05:01:20.898Z,20.32
2019-03-27T05:03:22.179Z,22.15
2019-03-27T05:05:23.706Z,22.55
2019-03-27T05:07:25.159Z,21.35
2019-03-27T05:09:26.321Z,21.42
2019-03-27T05:11:27.463Z,20.97
2019-03-27T05:13:28.616Z,22.67
2019-03-27T05:15:29.771Z,16.32
2019-03-27T05:17:30.922Z,23.42
2019-03-27T05:19:32.087Z,24.70
2019-03-27T05:21:33.238Z,23.02
2019-03-27T05:23:34.389Z,25.50
2019-03-27T05:25:35.808Z,27.27
2019-03-27T05:27:39.103Z,27.00
2019-03-27T05:29:40.254Z,28.77
2019-03-27T05:31:41.733Z,28.20
2019-03-27T05:33:43.248Z,29.98
2019-03-27T05:35:44.486Z,34.90
2019-03-27T05:37:45.635Z,30.72
2019-03-27T05:39:46.786Z,28.85
2019-03-27T05:41:47.934Z,27.02
2019-03-27T05:43:49.074Z,26.33
2019-03-27T05:45:50.267Z,24.95
2019-03-27T05:47:59.593Z,26.10
2019-03-27T05:49:54.534Z,25.88
2019-03-27T05:51:55.710Z,24.35
2019-03-27T05:53:56.941Z,24.85
2019-03-27T05:55:58.136Z,23.73
2019-03-27T05:57:59.696Z,26.12
2019-03-27T06:00:00.998Z,22.98
2019-03-27T06:02:02.143Z,24.40
2019-03-27T06:04:03.410Z,25.05
2019-03-27T06:06:04.546Z,23.05
2019-03-27T06:08:05.700Z,25.05
2019-03-27T06:10:07.152Z,24.32
2019-03-27T06:12:08.305Z,21.68
2019-03-27T06:14:09.458Z,23.25
2019-03-27T06:16:11.175Z,22.55
2019-03-27T06:18:13.523Z,22.15
2019-03-27T06:20:14.889Z,20.90
2019-03-27T06:22:16.072Z,21.15
2019-03-27T06:24:17.246Z,19.92
2019-03-27T06:26:18.479Z,19.35
2019-03-27T06:28:19.954Z,19.80
2019-03-27T06:30:21.614Z,18.25
2019-03-27T06:34:24.198Z,19.85
2019-03-27T06:36:25.338Z,19.90
2019-03-27T06:38:26.887Z,19.90
2019-03-27T06:40:28.051Z,19.52
2019-03-27T06:42:29.195Z,18.12
2019-03-27T06:44:30.454Z,18.65
2019-03-27T06:46:31.615Z,18.05
2019-03-27T06:48:33.198Z,17.77
2019-03-27T06:50:34.395Z,17.57
2019-03-27T06:52:35.881Z,17.67
2019-03-27T06:54:37.058Z,17.98
2019-03-27T06:56:38.199Z,17.95
2019-03-27T06:58:39.354Z,16.57
2019-03-27T07:00:40.543Z,15.00
2019-03-27T07:02:41.695Z,17.20
2019-03-27T07:04:42.859Z,16.65
2019-03-27T07:06:44.002Z,16.87
2019-03-27T07:08:45.199Z,16.05
2019-03-27T07:10:46.364Z,17.40
2019-03-27T07:12:47.546Z,17.05
2019-03-27T07:14:48.706Z,16.97
2019-03-27T07:16:49.873Z,17.85
2019-03-27T07:18:51.095Z,16.42
2019-03-27T07:20:52.352Z,17.17
2019-03-27T07:22:53.584Z,18.07
2019-03-27T07:24:54.744Z,18.42
2019-03-27T07:26:55.963Z,18.95
2019-03-27T07:28:57.130Z,18.52
2019-03-27T07:30:58.288Z,16.12
2019-03-27T07:33:00.116Z,17.48
2019-03-27T07:35:01.380Z,16.48
2019-03-27T07:37:02.902Z,16.90
2019-03-27T07:39:11.028Z,15.30
2019-03-27T07:41:08.188Z,15.60
2019-03-27T07:43:09.370Z,16.10
2019-03-27T07:45:11.252Z,16.70
2019-03-27T07:47:12.411Z,16.30
2019-03-27T07:49:13.654Z,16.77
2019-03-27T07:51:14.816Z,15.75
2019-03-27T07:53:15.966Z,18.17
2019-03-27T07:55:19.592Z,19.05
2019-03-27T07:57:20.332Z,19.90
2019-03-27T07:59:21.475Z,18.87
2019-03-27T08:01:23.021Z,18.90
2019-03-27T08:05:25.422Z,16.93
2019-03-27T08:07:27.304Z,16.73
2019-03-27T08:09:28.630Z,16.65
2019-03-27T08:11:30.379Z,16.05
2019-03-27T08:13:31.758Z,16.55
2019-03-27T08:15:32.902Z,14.83
2019-03-27T08:17:34.466Z,18.20
2019-03-27T08:21:37.127Z,17.73
2019-03-27T08:23:38.627Z,17.90
2019-03-27T08:25:39.774Z,16.65
2019-03-27T08:27:40.909Z,15.85
2019-03-27T08:29:42.109Z,17.27
2019-03-27T08:31:43.597Z,16.67
2019-03-27T08:33:45.249Z,14.03
2019-03-27T08:37:47.407Z,15.08
2019-03-27T08:39:48.541Z,14.03
2019-03-27T08:41:49.694Z,11.18
2019-03-27T08:43:50.926Z,14.58
2019-03-27T08:45:52.085Z,16.05
2019-03-27T08:47:53.257Z,14.43
2019-03-27T08:49:54.397Z,14.47
2019-03-27T08:51:55.622Z,14.20
2019-03-27T08:53:56.840Z,12.07
2019-03-27T08:55:58.022Z,14.00
2019-03-27T08:57:59.233Z,13.58
2019-03-27T09:00:02.632Z,12.95
2019-03-27T09:02:05.432Z,12.07
2019-03-27T09:04:06.845Z,12.40
2019-03-27T09:06:08.398Z,11.57
2019-03-27T09:08:09.551Z,11.97
2019-03-27T09:10:11.496Z,11.43
2019-03-27T09:12:12.645Z,12.15
2019-03-27T09:14:14.082Z,10.98
2019-03-27T09:16:15.634Z,10.78
2019-03-27T09:18:17.081Z,10.70
2019-03-27T09:22:19.446Z,9.78
2019-03-27T09:24:20.587Z,9.93
2019-03-27T09:26:21.741Z,6.75
2019-03-27T09:28:22.961Z,9.65
2019-03-27T09:30:24.507Z,9.93
2019-03-27T09:32:25.810Z,7.65
2019-03-27T09:34:27.324Z,7.75
2019-03-27T09:36:28.573Z,9.20
2019-03-27T09:38:29.735Z,7.33
2019-03-27T09:40:30.893Z,8.15
2019-03-27T09:42:32.394Z,9.03
2019-03-27T09:44:33.552Z,8.95
2019-03-27T09:46:34.996Z,7.53
2019-03-27T09:48:36.534Z,7.45
2019-03-27T09:50:37.686Z,8.03
2019-03-27T09:52:38.852Z,7.95
2019-03-27T09:54:40.104Z,9.45
2019-03-27T09:56:41.322Z,9.15
2019-03-27T09:58:42.517Z,7.78
2019-03-27T10:00:47.489Z,8.25
2019-03-27T10:02:48.643Z,7.67
2019-03-27T10:04:50.157Z,8.90
2019-03-27T10:06:51.703Z,9.18
2019-03-27T10:08:52.849Z,9.85
2019-03-27T10:10:54.300Z,9.60
2019-03-27T10:12:55.575Z,8.60
2019-03-27T10:14:57.396Z,9.45
2019-03-27T10:16:58.568Z,9.38
2019-03-27T10:18:59.751Z,6.22
2019-03-27T10:21:00.918Z,8.78
2019-03-27T10:23:02.083Z,9.73
2019-03-27T10:25:07.046Z,7.83
2019-03-27T10:27:08.331Z,8.85
2019-03-27T10:29:09.483Z,8.65
2019-03-27T10:31:10.636Z,7.90
2019-03-27T10:33:15.036Z,7.83
2019-03-27T10:35:15.242Z,7.12
2019-03-27T10:37:16.408Z,7.97
2019-03-27T10:39:17.567Z,8.10
2019-03-27T10:41:18.723Z,8.33
2019-03-27T10:43:20.142Z,8.30
2019-03-27T10:45:21.294Z,7.30
2019-03-27T10:47:22.797Z,6.80
2019-03-27T10:49:24.033Z,6.62
2019-03-27T10:51:25.194Z,6.92
2019-03-27T10:53:26.354Z,7.35
2019-03-27T10:55:27.863Z,6.42
2019-03-27T10:57:29.411Z,6.47
2019-03-27T10:59:30.960Z,6.00
2019-03-27T11:01:32.105Z,5.87
2019-03-27T11:03:33.369Z,5.42
2019-03-27T11:07:36.150Z,4.62
2019-03-27T11:09:37.367Z,4.58
2019-03-27T11:11:38.818Z,4.92
2019-03-27T11:13:39.999Z,4.28
2019-03-27T11:15:41.153Z,4.22
2019-03-27T11:17:42.319Z,4.87
2019-03-27T11:19:44.490Z,4.53
2019-03-27T11:21:45.891Z,4.35
2019-03-27T11:23:47.070Z,4.33
2019-03-27T11:25:48.222Z,4.25
2019-03-27T11:27:49.436Z,3.55
2019-03-27T11:29:50.618Z,3.37
2019-03-27T11:31:52.056Z,3.85
2019-03-27T11:33:53.331Z,3.58
2019-03-27T11:35:54.575Z,3.98
2019-03-27T11:37:55.818Z,4.25
2019-03-27T11:39:57.534Z,3.40
2019-03-27T11:44:01.992Z,4.05
2019-03-27T11:46:04.026Z,7.58
2019-03-27T11:48:08.062Z,6.55
2019-03-27T11:50:08.842Z,3.20
2019-03-27T11:52:10.095Z,3.40
2019-03-27T11:54:14.534Z,2.98
2019-03-27T11:56:15.818Z,3.08
2019-03-27T11:58:16.994Z,10.30
2019-03-27T12:00:18.427Z,4.65
2019-03-27T12:02:19.887Z,3.02
2019-03-27T12:04:21.033Z,2.77
2019-03-27T12:06:22.187Z,3.40
2019-03-27T12:08:23.346Z,3.08
2019-03-27T12:10:24.539Z,3.40
2019-03-27T12:12:25.710Z,2.52
2019-03-27T12:14:26.885Z,2.70
2019-03-27T12:16:28.040Z,2.77
2019-03-27T12:18:31.894Z,3.00
2019-03-27T12:20:32.382Z,3.20
2019-03-27T12:22:33.534Z,3.17
2019-03-27T12:24:34.692Z,3.12
2019-03-27T12:26:36.180Z,2.45
2019-03-27T12:28:37.413Z,2.72
2019-03-27T12:30:38.545Z,2.17
2019-03-27T12:32:39.794Z,2.20
2019-03-27T12:34:40.954Z,2.58
2019-03-27T12:36:42.109Z,2.75
2019-03-27T12:38:43.267Z,2.60
2019-03-27T12:40:44.637Z,2.37
2019-03-27T12:42:45.863Z,2.50
2019-03-27T12:44:47.018Z,2.80
2019-03-27T12:46:51.717Z,2.60
2019-03-27T12:48:51.530Z,3.12
2019-03-27T12:50:52.770Z,3.50
2019-03-27T12:52:53.909Z,3.58
2019-03-27T12:54:55.085Z,6.87
2019-03-27T12:56:56.316Z,3.20
2019-03-27T12:58:57.569Z,10.82
2019-03-27T13:00:58.771Z,10.90
2019-03-27T13:02:59.918Z,3.25
2019-03-27T13:05:01.382Z,3.72
2019-03-27T13:07:02.625Z,4.40
2019-03-27T13:09:05.788Z,6.00
2019-03-27T13:11:06.942Z,3.58
2019-03-27T13:13:08.222Z,2.40
2019-03-27T13:15:09.424Z,4.70
2019-03-27T13:17:10.886Z,3.52
2019-03-27T13:19:12.142Z,2.75
2019-03-27T13:21:25.529Z,2.60
2019-03-27T13:23:16.337Z,6.67
2019-03-27T13:25:18.714Z,2.70
2019-03-27T13:27:20.562Z,6.62
2019-03-27T13:29:21.823Z,7.75
2019-03-27T13:31:22.971Z,4.40
2019-03-27T13:33:24.102Z,2.85
2019-03-27T13:35:25.261Z,2.47
2019-03-27T13:37:26.393Z,3.42
2019-03-27T13:39:27.810Z,2.98
2019-03-27T13:41:28.958Z,8.35
2019-03-27T13:43:30.093Z,2.50
2019-03-27T13:45:32.659Z,2.50
2019-03-27T13:47:34.434Z,2.60
2019-03-27T13:51:40.872Z,1.98
2019-03-27T13:53:39.670Z,2.50
2019-03-27T13:55:40.836Z,2.75
2019-03-27T13:57:42.264Z,2.60
2019-03-27T13:59:43.413Z,2.05
2019-03-27T14:01:44.550Z,2.20
2019-03-27T14:03:45.698Z,3.15
2019-03-27T14:05:46.858Z,2.25
2019-03-27T14:07:48.089Z,2.10
2019-03-27T14:09:49.334Z,2.08
2019-03-27T14:11:50.557Z,1.77
2019-03-27T14:13:51.692Z,1.60
2019-03-27T14:15:52.845Z,1.90
2019-03-27T14:17:53.988Z,2.17
2019-03-27T14:19:55.235Z,2.00
2019-03-27T14:21:56.432Z,1.87
2019-03-27T14:23:57.569Z,1.90
2019-03-27T14:25:58.766Z,2.10
2019-03-27T14:27:59.909Z,2.33
2019-03-27T14:30:01.074Z,2.37
2019-03-27T14:32:02.215Z,2.33
2019-03-27T14:34:03.348Z,1.90
2019-03-27T14:36:04.599Z,2.35
2019-03-27T14:38:05.763Z,2.20
2019-03-27T14:40:07.436Z,2.40
2019-03-27T14:44:09.697Z,2.35
2019-03-27T14:46:10.848Z,1.65
2019-03-27T14:48:11.985Z,1.90
2019-03-27T14:50:13.530Z,1.90
2019-03-27T14:52:14.671Z,2.22
2019-03-27T14:54:15.836Z,1.80
2019-03-27T14:56:16.986Z,2.20
2019-03-27T14:58:18.178Z,2.70
2019-03-27T15:00:19.438Z,2.67
2019-03-27T15:02:20.583Z,3.27
2019-03-27T15:04:21.924Z,2.45
2019-03-27T15:06:23.246Z,2.50
2019-03-27T15:08:24.397Z,2.52
2019-03-27T15:10:25.651Z,2.70
2019-03-27T15:12:27.112Z,2.33
2019-03-27T15:14:28.277Z,2.58
2019-03-27T15:16:29.528Z,2.40
2019-03-27T15:18:30.703Z,3.27
2019-03-27T15:20:32.258Z,2.60
2019-03-27T15:22:33.702Z,4.70
2019-03-27T15:24:34.853Z,3.10
2019-03-27T15:26:36.004Z,3.40
2019-03-27T15:28:37.147Z,3.00
2019-03-27T15:30:38.293Z,3.55
2019-03-27T15:32:39.549Z,3.30
2019-03-27T15:34:40.762Z,4.47
2019-03-27T15:36:41.917Z,3.10
2019-03-27T15:38:43.066Z,3.70
2019-03-27T15:40:44.833Z,2.95
2019-03-27T15:44:49.733Z,3.72
2019-03-27T15:46:50.405Z,5.35
2019-03-27T15:48:51.590Z,5.37
2019-03-27T15:50:58.479Z,8.88
2019-03-27T15:52:55.795Z,5.00
2019-03-27T15:54:56.962Z,4.35
2019-03-27T15:56:58.103Z,10.00
2019-03-27T15:58:59.257Z,4.50
2019-03-27T16:01:00.633Z,5.08
2019-03-27T16:03:01.865Z,4.78
2019-03-27T16:05:04.710Z,3.95
2019-03-27T16:07:05.870Z,4.67
2019-03-27T16:09:09.153Z,5.45
2019-03-27T16:11:10.428Z,7.12
2019-03-27T16:13:12.562Z,5.72
2019-03-27T16:15:13.938Z,5.30
2019-03-27T16:17:15.093Z,5.87
2019-03-27T16:19:16.515Z,6.15
2019-03-27T16:21:17.673Z,5.50
2019-03-27T16:23:18.813Z,5.95
2019-03-27T16:25:19.961Z,6.22
2019-03-27T16:27:21.131Z,8.00
2019-03-27T16:29:22.383Z,11.55
2019-03-27T16:31:23.547Z,6.50
2019-03-27T16:33:24.810Z,8.05
2019-03-27T16:35:26.025Z,4.62
2019-03-27T16:37:27.179Z,4.58
2019-03-27T16:39:28.391Z,5.40
2019-03-27T16:41:29.551Z,6.58
2019-03-27T16:43:30.702Z,4.60
2019-03-27T16:45:31.953Z,4.80
2019-03-27T16:47:33.240Z,4.05
2019-03-27T16:49:34.674Z,22.42
2019-03-27T16:51:35.918Z,24.40
2019-03-27T16:53:37.084Z,6.47
2019-03-27T16:55:38.327Z,4.83
2019-03-27T16:57:39.482Z,4.50
2019-03-27T16:59:40.702Z,3.90
2019-03-27T17:01:41.953Z,3.58
2019-03-27T17:03:43.173Z,4.10
2019-03-27T17:05:53.833Z,4.67
2019-03-27T17:07:47.373Z,3.98
2019-03-27T17:09:48.529Z,6.75
2019-03-27T17:11:49.881Z,6.35
2019-03-27T17:13:51.149Z,5.42
2019-03-27T17:15:52.350Z,9.13
2019-03-27T17:17:53.590Z,5.37
2019-03-27T17:19:54.801Z,7.42
2019-03-27T17:21:55.986Z,7.33
2019-03-27T17:23:57.243Z,7.12
2019-03-27T17:25:58.556Z,6.08
2019-03-27T17:27:59.833Z,5.97
2019-03-27T17:30:01.154Z,6.17
2019-03-27T17:32:02.517Z,8.90
2019-03-27T17:34:03.726Z,8.33
2019-03-27T17:36:04.997Z,7.85
2019-03-27T17:38:06.235Z,5.35
2019-03-27T17:40:07.585Z,7.75
2019-03-27T17:42:08.749Z,7.75
2019-03-27T17:44:09.953Z,5.35
2019-03-27T17:46:11.122Z,4.62
2019-03-27T17:48:12.359Z,4.37
2019-03-27T17:50:14.033Z,4.97
2019-03-27T17:52:15.243Z,4.05
2019-03-27T17:54:20.765Z,4.60
2019-03-27T17:56:19.490Z,25.62
2019-03-27T17:58:20.709Z,6.53
2019-03-27T18:00:39.997Z,5.35
2019-03-27T18:02:41.153Z,4.75
2019-03-27T18:04:42.323Z,6.20
2019-03-27T18:06:43.497Z,8.58
2019-03-27T18:08:44.662Z,5.15
2019-03-27T18:10:45.970Z,5.53
2019-03-27T18:12:47.206Z,7.05
2019-03-27T18:14:48.352Z,6.87
2019-03-27T18:16:49.598Z,9.33
2019-03-27T18:18:50.840Z,7.03
2019-03-27T18:20:52.217Z,7.45
2019-03-27T18:22:53.425Z,5.80
2019-03-27T18:24:54.575Z,5.42
2019-03-27T18:26:55.721Z,6.25
2019-03-27T18:28:57.110Z,5.90
2019-03-27T18:30:58.323Z,5.78
2019-03-27T18:32:59.466Z,5.90
2019-03-27T18:35:00.605Z,4.78
2019-03-27T18:37:01.758Z,5.55
2019-03-27T18:39:06.091Z,4.92
2019-03-27T18:41:07.329Z,6.00
2019-03-27T18:43:08.593Z,5.58
2019-03-27T18:45:10.141Z,5.58
2019-03-27T18:47:11.279Z,6.22
2019-03-27T18:49:12.440Z,7.00
2019-03-27T18:51:13.677Z,5.00
2019-03-27T18:53:14.886Z,5.72
2019-03-27T18:55:25.735Z,5.55
2019-03-27T18:57:19.199Z,5.47
2019-03-27T18:59:20.354Z,5.50
2019-03-27T19:01:21.654Z,5.10
2019-03-27T19:03:23.013Z,4.90
2019-03-27T19:05:24.218Z,5.45
2019-03-27T19:07:25.390Z,4.70
2019-03-27T19:09:26.655Z,5.17
2019-03-27T19:11:27.930Z,5.22
2019-03-27T19:13:29.185Z,5.35
2019-03-27T19:15:30.334Z,5.70
2019-03-27T19:17:31.517Z,4.33
2019-03-27T19:21:27.631Z,5.20
2019-03-27T19:23:28.787Z,5.95
2019-03-27T19:25:29.930Z,13.55
2019-03-27T19:27:31.174Z,29.63
2019-03-27T19:29:32.685Z,12.33
2019-03-27T19:31:33.837Z,26.97
2019-03-27T19:33:35.117Z,62.40
2019-03-27T19:35:36.289Z,8.93
2019-03-27T19:37:37.696Z,9.45
2019-03-27T19:39:39.194Z,8.73
2019-03-27T19:41:40.518Z,8.88
2019-03-27T19:43:41.891Z,10.38
2019-03-27T19:45:43.138Z,9.05
2019-03-27T19:47:44.285Z,10.40
2019-03-27T19:49:45.440Z,10.53
2019-03-27T19:51:46.630Z,15.25
2019-03-27T19:53:47.835Z,12.75
2019-03-27T19:55:48.978Z,14.53
2019-03-27T19:57:51.503Z,8.13
2019-03-27T19:59:52.784Z,7.20
2019-03-27T20:01:54.027Z,8.60
2019-03-27T20:03:55.178Z,9.18
2019-03-27T20:05:56.364Z,10.88
2019-03-27T20:07:57.644Z,15.93
2019-03-27T20:09:58.862Z,10.15
2019-03-27T20:12:00.048Z,10.08
2019-03-27T20:14:01.207Z,14.53
2019-03-27T20:16:02.458Z,11.25
2019-03-27T20:18:04.236Z,8.15
2019-03-27T20:20:07.411Z,8.18
2019-03-27T20:22:08.947Z,8.78
2019-03-27T20:24:10.484Z,7.10
2019-03-27T20:26:11.631Z,8.08
2019-03-27T20:28:12.906Z,7.60
2019-03-27T20:30:16.793Z,8.45
2019-03-27T20:32:17.950Z,8.23
2019-03-27T20:34:19.187Z,8.50
2019-03-27T20:36:20.754Z,8.25
2019-03-27T20:38:21.935Z,9.43
2019-03-27T20:40:23.184Z,8.95
2019-03-27T20:42:24.329Z,9.25
2019-03-27T20:44:25.522Z,9.03
2019-03-27T20:46:29.247Z,10.30
2019-03-27T20:48:29.738Z,9.10
2019-03-27T20:50:32.358Z,8.65
2019-03-27T20:52:33.639Z,8.93
2019-03-27T20:54:34.904Z,8.63
2019-03-27T20:56:36.142Z,9.38
2019-03-27T20:58:37.294Z,8.53
2019-03-27T21:00:38.569Z,8.65
2019-03-27T21:02:39.709Z,9.15
2019-03-27T21:04:40.879Z,9.50
2019-03-27T21:06:42.035Z,8.70
2019-03-27T21:08:43.347Z,10.05
2019-03-27T21:10:44.611Z,8.33
2019-03-27T21:12:45.755Z,9.45
2019-03-27T21:14:46.982Z,10.10
2019-03-27T21:16:48.218Z,10.00
2019-03-27T21:18:49.376Z,9.68
2019-03-27T21:20:50.535Z,9.70
2019-03-27T21:22:51.693Z,10.18
2019-03-27T21:24:52.850Z,10.48
2019-03-27T21:26:54.110Z,11.28
2019-03-27T21:28:55.292Z,10.82
2019-03-27T21:30:56.439Z,9.95
2019-03-27T21:32:57.874Z,11.35
2019-03-27T21:34:59.036Z,8.83
2019-03-27T21:37:00.194Z,11.73
2019-03-27T21:39:01.450Z,12.68
2019-03-27T21:41:02.802Z,11.68
2019-03-27T21:43:03.955Z,13.48
2019-03-27T21:45:07.517Z,12.75
2019-03-27T21:47:08.670Z,13.48
2019-03-27T21:49:09.830Z,14.80
2019-03-27T21:51:11.110Z,16.75
2019-03-27T21:53:12.258Z,15.83
2019-03-27T21:55:22.365Z,12.65
2019-03-27T21:57:16.896Z,11.95
2019-03-27T21:59:18.060Z,13.08
2019-03-27T22:01:19.210Z,11.55
2019-03-27T22:03:20.658Z,11.35
2019-03-27T22:05:21.818Z,11.53
2019-03-27T22:07:22.962Z,11.33
2019-03-27T22:09:24.631Z,16.17
2019-03-27T22:13:27.201Z,14.98
2019-03-27T22:15:28.363Z,19.62
2019-03-27T22:17:29.568Z,14.63
2019-03-27T22:19:30.726Z,13.55
2019-03-27T22:21:31.910Z,17.12
2019-03-27T22:23:33.069Z,20.95
2019-03-27T22:25:36.117Z,11.65
2019-03-27T22:27:37.297Z,11.90
2019-03-27T22:29:38.453Z,16.20
2019-03-27T22:31:39.606Z,16.52
2019-03-27T22:33:41.158Z,14.80
2019-03-27T22:35:42.395Z,13.53
2019-03-27T22:37:43.542Z,12.55
2019-03-27T22:39:44.701Z,14.40
2019-03-27T22:41:45.847Z,13.13
2019-03-27T22:43:47.009Z,12.15
2019-03-27T22:45:48.163Z,12.55
2019-03-27T22:47:49.319Z,11.05
2019-03-27T22:49:50.486Z,11.20
2019-03-27T22:51:51.631Z,12.18
2019-03-27T22:53:52.853Z,12.68
2019-03-27T22:55:54.014Z,11.48
2019-03-27T22:57:55.158Z,12.68
2019-03-27T22:59:56.323Z,12.35
2019-03-27T23:01:57.470Z,11.38
2019-03-27T23:03:58.619Z,12.23
2019-03-27T23:05:59.967Z,11.78
2019-03-27T23:08:01.348Z,14.10
2019-03-27T23:10:04.812Z,12.13
2019-03-27T23:12:06.055Z,12.73
2019-03-27T23:14:07.411Z,13.32
2019-03-27T23:16:08.617Z,12.75
2019-03-27T23:18:10.235Z,12.37
2019-03-27T23:20:11.512Z,13.15
2019-03-27T23:22:13.344Z,11.95
2019-03-27T23:24:14.498Z,13.13
2019-03-27T23:26:15.666Z,11.97
2019-03-27T23:28:16.820Z,12.75
2019-03-27T23:30:17.986Z,12.75
2019-03-27T23:32:19.206Z,14.07
2019-03-27T23:34:20.368Z,12.58
2019-03-27T23:36:21.514Z,13.70
2019-03-27T23:38:22.658Z,14.03
2019-03-27T23:40:23.882Z,13.72
2019-03-27T23:42:25.035Z,12.05
2019-03-27T23:44:26.258Z,11.90
2019-03-27T23:46:27.402Z,13.48
2019-03-27T23:48:28.630Z,13.78
2019-03-27T23:50:29.790Z,17.17
2019-03-27T23:52:30.926Z,14.80
2019-03-27T23:54:32.094Z,13.88
2019-03-27T23:56:33.238Z,14.45
2019-03-27T23:58:34.389Z,10.85
